sensor_id;sensor_type;location;lat;lon;timestamp;pressure;altitude;pressure_sealevel;temperature;humidity
38812;BME280;24553;51.640;-0.752;2023-03-09T00:00:19;98384.31;;;4.26;100.00
38812;BME280;24553;51.640;-0.752;2023-03-09T00:02:47;98387.16;;;4.31;100.00
38812;BME280;24553;51.640;-0.752;2023-03-09T00:05:13;98389.34;;;4.21;100.00
38812;BME280;24553;51.640;-0.752;2023-03-09T00:07:42;98396.22;;;4.08;100.00
38812;BME280;24553;51.640;-0.752;2023-03-09T00:10:10;98393.59;;;4.28;100.00
38812;BME280;24553;51.640;-0.752;2023-03-09T00:12:35;98390.38;;;4.33;100.00
38812;BME280;24553;51.640;-0.752;2023-03-09T00:15:01;98402.69;;;4.26;100.00
38812;BME280;24553;51.640;-0.752;2023-03-09T00:17:26;98389.19;;;4.29;100.00
38812;BME280;24553;51.640;-0.752;2023-03-09T00:19:51;98380.47;;;4.28;100.00
38812;BME280;24553;51.640;-0.752;2023-03-09T00:22:26;98370.59;;;4.30;100.00
38812;BME280;24553;51.640;-0.752;2023-03-09T00:24:53;98367.38;;;4.35;100.00
38812;BME280;24553;51.640;-0.752;2023-03-09T00:27:20;98364.16;;;4.26;100.00
38812;BME280;24553;51.640;-0.752;2023-03-09T00:29:45;98382.31;;;4.28;100.00
38812;BME280;24553;51.640;-0.752;2023-03-09T00:32:11;98399.66;;;4.35;100.00
38812;BME280;24553;51.640;-0.752;2023-03-09T00:34:36;98404.09;;;4.35;100.00
38812;BME280;24553;51.640;-0.752;2023-03-09T00:37:01;98408.97;;;4.31;100.00
38812;BME280;24553;51.640;-0.752;2023-03-09T00:39:27;98393.22;;;4.25;100.00
38812;BME280;24553;51.640;-0.752;2023-03-09T00:41:52;98388.38;;;4.35;100.00
38812;BME280;24553;51.640;-0.752;2023-03-09T00:44:17;98389.97;;;4.36;100.00
38812;BME280;24553;51.640;-0.752;2023-03-09T00:46:43;98413.78;;;4.28;100.00
38812;BME280;24553;51.640;-0.752;2023-03-09T00:49:11;98419.06;;;4.34;100.00
38812;BME280;24553;51.640;-0.752;2023-03-09T00:51:37;98422.88;;;4.25;100.00
38812;BME280;24553;51.640;-0.752;2023-03-09T00:54:03;98423.47;;;4.27;100.00
38812;BME280;24553;51.640;-0.752;2023-03-09T00:56:28;98433.16;;;4.27;100.00
38812;BME280;24553;51.640;-0.752;2023-03-09T00:58:56;98445.91;;;4.36;100.00
38812;BME280;24553;51.640;-0.752;2023-03-09T01:01:22;98447.91;;;4.34;100.00
38812;BME280;24553;51.640;-0.752;2023-03-09T01:03:47;98467.50;;;4.32;100.00
38812;BME280;24553;51.640;-0.752;2023-03-09T01:06:13;98468.91;;;4.41;100.00
38812;BME280;24553;51.640;-0.752;2023-03-09T01:08:39;98466.88;;;4.30;100.00
38812;BME280;24553;51.640;-0.752;2023-03-09T01:11:06;98465.47;;;4.27;100.00
38812;BME280;24553;51.640;-0.752;2023-03-09T01:13:32;98460.59;;;4.31;100.00
38812;BME280;24553;51.640;-0.752;2023-03-09T01:15:57;98474.53;;;4.25;100.00
38812;BME280;24553;51.640;-0.752;2023-03-09T01:18:23;98487.84;;;4.17;100.00
38812;BME280;24553;51.640;-0.752;2023-03-09T01:20:48;98483.56;;;4.15;100.00
38812;BME280;24553;51.640;-0.752;2023-03-09T01:23:14;98479.16;;;4.23;100.00
38812;BME280;24553;51.640;-0.752;2023-03-09T01:25:39;98484.19;;;4.18;100.00
38812;BME280;24553;51.640;-0.752;2023-03-09T01:28:04;98484.00;;;4.19;100.00
38812;BME280;24553;51.640;-0.752;2023-03-09T01:30:30;98489.84;;;4.14;100.00
38812;BME280;24553;51.640;-0.752;2023-03-09T01:32:56;98482.81;;;4.28;100.00
38812;BME280;24553;51.640;-0.752;2023-03-09T01:35:21;98487.69;;;4.31;100.00
38812;BME280;24553;51.640;-0.752;2023-03-09T01:37:47;98483.59;;;4.22;100.00
38812;BME280;24553;51.640;-0.752;2023-03-09T01:40:18;98491.50;;;4.29;100.00
38812;BME280;24553;51.640;-0.752;2023-03-09T01:42:53;98501.94;;;4.15;100.00
38812;BME280;24553;51.640;-0.752;2023-03-09T01:47:45;98518.94;;;4.26;100.00
38812;BME280;24553;51.640;-0.752;2023-03-09T01:50:12;98509.25;;;4.33;100.00
38812;BME280;24553;51.640;-0.752;2023-03-09T01:52:39;98499.38;;;4.35;100.00
38812;BME280;24553;51.640;-0.752;2023-03-09T01:55:09;98492.09;;;4.31;100.00
38812;BME280;24553;51.640;-0.752;2023-03-09T01:57:55;98491.09;;;4.38;100.00
38812;BME280;24553;51.640;-0.752;2023-03-09T02:00:23;98486.88;;;4.44;100.00
38812;BME280;24553;51.640;-0.752;2023-03-09T02:03:03;98495.56;;;4.51;100.00
38812;BME280;24553;51.640;-0.752;2023-03-09T02:05:34;98500.59;;;4.46;100.00
38812;BME280;24553;51.640;-0.752;2023-03-09T02:08:01;98510.72;;;4.56;100.00
38812;BME280;24553;51.640;-0.752;2023-03-09T02:10:33;98520.00;;;4.45;100.00
38812;BME280;24553;51.640;-0.752;2023-03-09T02:13:03;98529.50;;;4.53;100.00
38812;BME280;24553;51.640;-0.752;2023-03-09T02:15:31;98535.75;;;4.52;100.00
38812;BME280;24553;51.640;-0.752;2023-03-09T02:17:56;98532.31;;;4.51;100.00
38812;BME280;24553;51.640;-0.752;2023-03-09T02:22:57;98522.19;;;4.48;100.00
38812;BME280;24553;51.640;-0.752;2023-03-09T02:27:50;98509.09;;;4.48;100.00
38812;BME280;24553;51.640;-0.752;2023-03-09T02:30:16;98508.69;;;4.51;100.00
38812;BME280;24553;51.640;-0.752;2023-03-09T02:32:42;98504.25;;;4.52;100.00
38812;BME280;24553;51.640;-0.752;2023-03-09T02:35:07;98520.38;;;4.49;100.00
38812;BME280;24553;51.640;-0.752;2023-03-09T02:37:39;98536.13;;;4.49;100.00
38812;BME280;24553;51.640;-0.752;2023-03-09T02:42:30;98554.34;;;4.64;100.00
38812;BME280;24553;51.640;-0.752;2023-03-09T02:44:57;98572.53;;;4.65;100.00
38812;BME280;24553;51.640;-0.752;2023-03-09T02:47:23;98572.75;;;4.70;100.00
38812;BME280;24553;51.640;-0.752;2023-03-09T02:49:49;98565.84;;;4.69;100.00
38812;BME280;24553;51.640;-0.752;2023-03-09T02:52:17;98574.75;;;4.75;100.00
38812;BME280;24553;51.640;-0.752;2023-03-09T02:54:42;98580.81;;;4.75;100.00
38812;BME280;24553;51.640;-0.752;2023-03-09T02:57:07;98578.56;;;4.72;100.00
38812;BME280;24553;51.640;-0.752;2023-03-09T02:59:33;98579.03;;;4.14;100.00
38812;BME280;24553;51.640;-0.752;2023-03-09T03:01:58;98575.69;;;4.41;100.00
38812;BME280;24553;51.640;-0.752;2023-03-09T03:04:24;98584.00;;;4.51;100.00
38812;BME280;24553;51.640;-0.752;2023-03-09T03:06:49;98581.59;;;4.63;100.00
38812;BME280;24553;51.640;-0.752;2023-03-09T03:09:14;98594.94;;;4.68;100.00
38812;BME280;24553;51.640;-0.752;2023-03-09T03:11:40;98589.88;;;4.59;100.00
38812;BME280;24553;51.640;-0.752;2023-03-09T03:14:05;98599.19;;;4.62;100.00
38812;BME280;24553;51.640;-0.752;2023-03-09T03:16:33;98599.97;;;4.63;100.00
38812;BME280;24553;51.640;-0.752;2023-03-09T03:18:58;98597.75;;;4.59;100.00
38812;BME280;24553;51.640;-0.752;2023-03-09T03:21:24;98604.44;;;4.62;100.00
38812;BME280;24553;51.640;-0.752;2023-03-09T03:23:49;98612.09;;;4.64;100.00
38812;BME280;24553;51.640;-0.752;2023-03-09T03:26:15;98619.56;;;4.12;100.00
38812;BME280;24553;51.640;-0.752;2023-03-09T03:28:41;98624.63;;;3.79;100.00
38812;BME280;24553;51.640;-0.752;2023-03-09T03:31:06;98624.09;;;4.31;100.00
38812;BME280;24553;51.640;-0.752;2023-03-09T03:33:32;98618.09;;;4.51;100.00
38812;BME280;24553;51.640;-0.752;2023-03-09T03:35:58;98623.97;;;4.53;100.00
38812;BME280;24553;51.640;-0.752;2023-03-09T03:38:23;98620.31;;;4.47;100.00
38812;BME280;24553;51.640;-0.752;2023-03-09T03:40:48;98619.53;;;4.47;100.00
38812;BME280;24553;51.640;-0.752;2023-03-09T03:43:14;98621.53;;;4.45;100.00
38812;BME280;24553;51.640;-0.752;2023-03-09T03:45:40;98622.34;;;4.45;100.00
38812;BME280;24553;51.640;-0.752;2023-03-09T03:48:06;98627.00;;;4.56;100.00
38812;BME280;24553;51.640;-0.752;2023-03-09T03:50:31;98624.81;;;4.60;100.00
38812;BME280;24553;51.640;-0.752;2023-03-09T03:52:57;98627.00;;;4.56;100.00
38812;BME280;24553;51.640;-0.752;2023-03-09T03:55:22;98611.25;;;4.56;100.00
38812;BME280;24553;51.640;-0.752;2023-03-09T03:57:48;98607.00;;;4.49;100.00
38812;BME280;24553;51.640;-0.752;2023-03-09T04:00:13;98610.06;;;4.52;100.00
38812;BME280;24553;51.640;-0.752;2023-03-09T04:02:39;98612.88;;;4.57;100.00
38812;BME280;24553;51.640;-0.752;2023-03-09T04:05:05;98599.34;;;4.47;100.00
38812;BME280;24553;51.640;-0.752;2023-03-09T04:07:31;98616.09;;;4.53;100.00
38812;BME280;24553;51.640;-0.752;2023-03-09T04:09:56;98609.63;;;4.42;100.00
38812;BME280;24553;51.640;-0.752;2023-03-09T04:12:22;98626.16;;;4.43;100.00
38812;BME280;24553;51.640;-0.752;2023-03-09T04:14:47;98629.94;;;4.33;100.00
38812;BME280;24553;51.640;-0.752;2023-03-09T04:17:12;98633.81;;;4.37;100.00
38812;BME280;24553;51.640;-0.752;2023-03-09T04:19:38;98630.38;;;4.44;100.00
38812;BME280;24553;51.640;-0.752;2023-03-09T04:22:03;98634.66;;;4.51;100.00
38812;BME280;24553;51.640;-0.752;2023-03-09T04:24:29;98622.16;;;4.53;100.00
38812;BME280;24553;51.640;-0.752;2023-03-09T04:26:55;98622.38;;;4.52;100.00
38812;BME280;24553;51.640;-0.752;2023-03-09T04:29:20;98628.19;;;4.47;100.00
38812;BME280;24553;51.640;-0.752;2023-03-09T04:31:46;98624.00;;;4.59;100.00
38812;BME280;24553;51.640;-0.752;2023-03-09T04:34:11;98635.31;;;4.60;100.00
38812;BME280;24553;51.640;-0.752;2023-03-09T04:36:37;98640.97;;;4.64;100.00
38812;BME280;24553;51.640;-0.752;2023-03-09T04:39:03;98644.22;;;4.72;100.00
38812;BME280;24553;51.640;-0.752;2023-03-09T04:41:30;98640.16;;;4.70;100.00
38812;BME280;24553;51.640;-0.752;2023-03-09T04:43:55;98655.91;;;4.70;100.00
38812;BME280;24553;51.640;-0.752;2023-03-09T04:46:20;98660.00;;;4.79;100.00
38812;BME280;24553;51.640;-0.752;2023-03-09T04:48:46;98657.00;;;4.89;100.00
38812;BME280;24553;51.640;-0.752;2023-03-09T04:51:12;98667.09;;;4.92;100.00
38812;BME280;24553;51.640;-0.752;2023-03-09T04:53:38;98661.81;;;4.85;100.00
38812;BME280;24553;51.640;-0.752;2023-03-09T04:56:03;98671.72;;;4.83;100.00
38812;BME280;24553;51.640;-0.752;2023-03-09T04:58:29;98681.84;;;4.86;100.00
38812;BME280;24553;51.640;-0.752;2023-03-09T05:00:54;98687.31;;;4.91;100.00
38812;BME280;24553;51.640;-0.752;2023-03-09T05:03:19;98689.94;;;4.91;100.00
38812;BME280;24553;51.640;-0.752;2023-03-09T05:05:45;98691.31;;;4.87;100.00
38812;BME280;24553;51.640;-0.752;2023-03-09T05:08:10;98693.75;;;4.95;100.00
38812;BME280;24553;51.640;-0.752;2023-03-09T05:10:35;98677.59;;;4.92;100.00
38812;BME280;24553;51.640;-0.752;2023-03-09T05:13:01;98672.94;;;4.80;100.00
38812;BME280;24553;51.640;-0.752;2023-03-09T05:15:26;98658.75;;;4.68;100.00
38812;BME280;24553;51.640;-0.752;2023-03-09T05:17:52;98670.84;;;4.63;100.00
38812;BME280;24553;51.640;-0.752;2023-03-09T05:20:17;98675.09;;;4.57;100.00
38812;BME280;24553;51.640;-0.752;2023-03-09T05:22:43;98675.03;;;4.50;100.00
38812;BME280;24553;51.640;-0.752;2023-03-09T05:25:08;98652.84;;;4.53;100.00
38812;BME280;24553;51.640;-0.752;2023-03-09T05:27:34;98654.28;;;4.55;100.00
38812;BME280;24553;51.640;-0.752;2023-03-09T05:30:00;98648.44;;;4.60;100.00
38812;BME280;24553;51.640;-0.752;2023-03-09T05:32:25;98652.72;;;3.57;100.00
38812;BME280;24553;51.640;-0.752;2023-03-09T05:34:50;98668.50;;;4.33;100.00
38812;BME280;24553;51.640;-0.752;2023-03-09T05:37:16;98665.75;;;4.48;100.00
38812;BME280;24553;51.640;-0.752;2023-03-09T05:39:41;98675.88;;;4.57;100.00
38812;BME280;24553;51.640;-0.752;2023-03-09T05:42:07;98672.06;;;4.60;100.00
38812;BME280;24553;51.640;-0.752;2023-03-09T05:44:32;98687.97;;;2.90;100.00
38812;BME280;24553;51.640;-0.752;2023-03-09T05:46:58;98681.41;;;3.65;100.00
38812;BME280;24553;51.640;-0.752;2023-03-09T05:49:24;98674.53;;;4.27;100.00
38812;BME280;24553;51.640;-0.752;2023-03-09T05:51:53;98663.69;;;4.43;100.00
38812;BME280;24553;51.640;-0.752;2023-03-09T05:54:19;98673.22;;;4.51;100.00
38812;BME280;24553;51.640;-0.752;2023-03-09T05:56:44;98675.88;;;4.57;100.00
38812;BME280;24553;51.640;-0.752;2023-03-09T05:59:09;98669.22;;;4.62;100.00
38812;BME280;24553;51.640;-0.752;2023-03-09T06:01:35;98665.63;;;4.69;100.00
38812;BME280;24553;51.640;-0.752;2023-03-09T06:04:00;98669.25;;;4.68;100.00
38812;BME280;24553;51.640;-0.752;2023-03-09T06:06:25;98658.13;;;4.66;100.00
38812;BME280;24553;51.640;-0.752;2023-03-09T06:08:51;98660.53;;;4.54;100.00
38812;BME280;24553;51.640;-0.752;2023-03-09T06:11:16;98653.81;;;4.45;100.00
38812;BME280;24553;51.640;-0.752;2023-03-09T06:13:42;98659.31;;;4.50;100.00
38812;BME280;24553;51.640;-0.752;2023-03-09T06:16:12;98666.78;;;4.53;100.00
38812;BME280;24553;51.640;-0.752;2023-03-09T06:18:38;98656.91;;;4.55;100.00
38812;BME280;24553;51.640;-0.752;2023-03-09T06:21:05;98668.41;;;4.54;100.00
38812;BME280;24553;51.640;-0.752;2023-03-09T06:23:31;98656.84;;;4.49;100.00
38812;BME280;24553;51.640;-0.752;2023-03-09T06:25:57;98649.41;;;4.52;100.00
38812;BME280;24553;51.640;-0.752;2023-03-09T06:28:23;98645.34;;;4.43;100.00
38812;BME280;24553;51.640;-0.752;2023-03-09T06:30:49;98654.22;;;4.42;100.00
38812;BME280;24553;51.640;-0.752;2023-03-09T06:33:14;98643.72;;;4.42;100.00
38812;BME280;24553;51.640;-0.752;2023-03-09T06:35:40;98649.56;;;4.37;100.00
38812;BME280;24553;51.640;-0.752;2023-03-09T06:38:05;98650.97;;;4.40;100.00
38812;BME280;24553;51.640;-0.752;2023-03-09T06:40:31;98646.75;;;4.46;100.00
38812;BME280;24553;51.640;-0.752;2023-03-09T06:42:56;98645.94;;;4.45;100.00
38812;BME280;24553;51.640;-0.752;2023-03-09T06:45:22;98647.34;;;4.41;100.00
38812;BME280;24553;51.640;-0.752;2023-03-09T06:47:48;98650.53;;;4.30;100.00
38812;BME280;24553;51.640;-0.752;2023-03-09T06:50:14;98651.31;;;4.24;100.00
38812;BME280;24553;51.640;-0.752;2023-03-09T06:52:39;98655.97;;;4.28;100.00
38812;BME280;24553;51.640;-0.752;2023-03-09T06:55:05;98661.66;;;4.32;100.00
38812;BME280;24553;51.640;-0.752;2023-03-09T06:57:31;98654.81;;;4.37;100.00
38812;BME280;24553;51.640;-0.752;2023-03-09T06:59:56;98651.38;;;4.37;100.00
38812;BME280;24553;51.640;-0.752;2023-03-09T07:02:22;98649.41;;;4.52;100.00
38812;BME280;24553;51.640;-0.752;2023-03-09T07:04:47;98648.97;;;4.49;100.00
38812;BME280;24553;51.640;-0.752;2023-03-09T07:07:12;98646.44;;;4.62;100.00
38812;BME280;24553;51.640;-0.752;2023-03-09T07:09:38;98649.25;;;4.67;100.00
38812;BME280;24553;51.640;-0.752;2023-03-09T07:12:04;98644.84;;;4.81;100.00
38812;BME280;24553;51.640;-0.752;2023-03-09T07:14:29;98650.28;;;4.73;100.00
38812;BME280;24553;51.640;-0.752;2023-03-09T07:16:55;98644.63;;;4.69;100.00
38812;BME280;24553;51.640;-0.752;2023-03-09T07:19:22;98647.19;;;4.56;100.00
38812;BME280;24553;51.640;-0.752;2023-03-09T07:21:48;98647.56;;;4.46;100.00
38812;BME280;24553;51.640;-0.752;2023-03-09T07:24:14;98639.50;;;4.48;100.00
38812;BME280;24553;51.640;-0.752;2023-03-09T07:26:40;98647.63;;;4.66;100.00
38812;BME280;24553;51.640;-0.752;2023-03-09T07:29:05;98655.53;;;4.73;100.00
38812;BME280;24553;51.640;-0.752;2023-03-09T07:31:30;98646.25;;;4.70;100.00
38812;BME280;24553;51.640;-0.752;2023-03-09T07:33:56;98649.84;;;4.63;100.00
38812;BME280;24553;51.640;-0.752;2023-03-09T07:36:22;98647.06;;;4.71;100.00
38812;BME280;24553;51.640;-0.752;2023-03-09T07:38:48;98649.91;;;4.76;100.00
38812;BME280;24553;51.640;-0.752;2023-03-09T07:41:14;98645.25;;;4.78;100.00
38812;BME280;24553;51.640;-0.752;2023-03-09T07:43:40;98651.31;;;4.78;100.00
38812;BME280;24553;51.640;-0.752;2023-03-09T07:46:10;98651.94;;;4.87;100.00
38812;BME280;24553;51.640;-0.752;2023-03-09T07:48:37;98650.75;;;5.03;100.00
38812;BME280;24553;51.640;-0.752;2023-03-09T07:51:03;98649.75;;;5.11;100.00
38812;BME280;24553;51.640;-0.752;2023-03-09T07:53:30;98651.75;;;4.89;100.00
38812;BME280;24553;51.640;-0.752;2023-03-09T07:55:57;98648.53;;;4.93;100.00
38812;BME280;24553;51.640;-0.752;2023-03-09T07:58:23;98632.38;;;4.96;100.00
38812;BME280;24553;51.640;-0.752;2023-03-09T08:00:48;98629.94;;;5.01;100.00
38812;BME280;24553;51.640;-0.752;2023-03-09T08:03:13;98625.91;;;5.06;100.00
38812;BME280;24553;51.640;-0.752;2023-03-09T08:05:42;98615.00;;;5.15;100.00
38812;BME280;24553;51.640;-0.752;2023-03-09T08:08:07;98614.00;;;5.16;100.00
38812;BME280;24553;51.640;-0.752;2023-03-09T08:10:33;98621.47;;;5.19;100.00
38812;BME280;24553;51.640;-0.752;2023-03-09T08:12:59;98618.25;;;5.17;100.00
38812;BME280;24553;51.640;-0.752;2023-03-09T08:15:25;98612.38;;;5.22;100.00
38812;BME280;24553;51.640;-0.752;2023-03-09T08:17:50;98608.75;;;5.30;100.00
38812;BME280;24553;51.640;-0.752;2023-03-09T08:20:15;98601.25;;;5.33;100.00
38812;BME280;24553;51.640;-0.752;2023-03-09T08:22:41;98599.03;;;5.37;100.00
38812;BME280;24553;51.640;-0.752;2023-03-09T08:25:07;98606.09;;;5.36;100.00
38812;BME280;24553;51.640;-0.752;2023-03-09T08:27:43;98608.53;;;5.31;100.00
38812;BME280;24553;51.640;-0.752;2023-03-09T08:30:11;98614.41;;;5.33;100.00
38812;BME280;24553;51.640;-0.752;2023-03-09T08:32:37;98615.00;;;5.29;100.00
38812;BME280;24553;51.640;-0.752;2023-03-09T08:35:03;98619.25;;;5.36;100.00
38812;BME280;24553;51.640;-0.752;2023-03-09T08:37:28;98614.59;;;5.38;100.00
38812;BME280;24553;51.640;-0.752;2023-03-09T08:39:54;98617.41;;;5.37;100.00
38812;BME280;24553;51.640;-0.752;2023-03-09T08:42:19;98610.75;;;5.41;100.00
38812;BME280;24553;51.640;-0.752;2023-03-09T08:44:44;98614.81;;;5.50;100.00
38812;BME280;24553;51.640;-0.752;2023-03-09T08:47:10;98604.28;;;5.57;100.00
38812;BME280;24553;51.640;-0.752;2023-03-09T08:49:35;98606.09;;;5.63;100.00
38812;BME280;24553;51.640;-0.752;2023-03-09T08:52:03;98604.69;;;5.60;100.00
38812;BME280;24553;51.640;-0.752;2023-03-09T08:54:28;98604.47;;;5.62;100.00
38812;BME280;24553;51.640;-0.752;2023-03-09T08:56:53;98609.72;;;5.68;100.00
38812;BME280;24553;51.640;-0.752;2023-03-09T08:59:19;98612.13;;;5.77;100.00
38812;BME280;24553;51.640;-0.752;2023-03-09T09:01:44;98617.38;;;5.90;100.00
38812;BME280;24553;51.640;-0.752;2023-03-09T09:04:09;98610.06;;;5.92;100.00
38812;BME280;24553;51.640;-0.752;2023-03-09T09:06:35;98606.22;;;6.08;100.00
38812;BME280;24553;51.640;-0.752;2023-03-09T09:09:00;98596.47;;;6.15;100.00
38812;BME280;24553;51.640;-0.752;2023-03-09T09:11:25;98599.91;;;6.16;100.00
38812;BME280;24553;51.640;-0.752;2023-03-09T09:13:51;98597.47;;;6.14;100.00
38812;BME280;24553;51.640;-0.752;2023-03-09T09:16:17;98607.63;;;6.04;100.00
38812;BME280;24553;51.640;-0.752;2023-03-09T09:18:43;98592.00;;;6.22;100.00
38812;BME280;24553;51.640;-0.752;2023-03-09T09:21:11;98594.41;;;6.24;100.00
38812;BME280;24553;51.640;-0.752;2023-03-09T09:23:37;98587.31;;;6.31;100.00
38812;BME280;24553;51.640;-0.752;2023-03-09T09:26:04;98595.34;;;6.43;100.00
38812;BME280;24553;51.640;-0.752;2023-03-09T09:28:30;98592.06;;;6.54;100.00
38812;BME280;24553;51.640;-0.752;2023-03-09T09:30:57;98599.34;;;6.52;100.00
38812;BME280;24553;51.640;-0.752;2023-03-09T09:33:24;98591.81;;;6.62;100.00
38812;BME280;24553;51.640;-0.752;2023-03-09T09:36:06;98581.47;;;6.61;100.00
38812;BME280;24553;51.640;-0.752;2023-03-09T09:38:32;98582.06;;;6.63;100.00
38812;BME280;24553;51.640;-0.752;2023-03-09T09:43:49;98583.91;;;6.62;100.00
38812;BME280;24553;51.640;-0.752;2023-03-09T09:46:16;98587.50;;;6.68;100.00
38812;BME280;24553;51.640;-0.752;2023-03-09T09:48:46;98577.22;;;6.91;100.00
38812;BME280;24553;51.640;-0.752;2023-03-09T09:56:59;98567.63;;;7.04;100.00
38812;BME280;24553;51.640;-0.752;2023-03-09T10:07:52;98562.47;;;7.15;100.00
38812;BME280;24553;51.640;-0.752;2023-03-09T10:10:26;98557.75;;;7.17;100.00
38812;BME280;24553;51.640;-0.752;2023-03-09T10:12:52;98552.56;;;7.36;100.00
38812;BME280;24553;51.640;-0.752;2023-03-09T10:15:26;98539.63;;;7.28;100.00
38812;BME280;24553;51.640;-0.752;2023-03-09T10:17:57;98545.28;;;7.31;100.00
38812;BME280;24553;51.640;-0.752;2023-03-09T10:20:37;98532.16;;;7.25;100.00
38812;BME280;24553;51.640;-0.752;2023-03-09T10:23:21;98529.19;;;7.39;100.00
38812;BME280;24553;51.640;-0.752;2023-03-09T10:25:50;98527.75;;;7.43;100.00
38812;BME280;24553;51.640;-0.752;2023-03-09T10:28:21;98522.06;;;7.40;100.00
38812;BME280;24553;51.640;-0.752;2023-03-09T10:36:07;98516.31;;;7.68;100.00
38812;BME280;24553;51.640;-0.752;2023-03-09T10:38:34;98520.25;;;7.59;100.00
38812;BME280;24553;51.640;-0.752;2023-03-09T10:41:02;98528.03;;;7.54;100.00
38812;BME280;24553;51.640;-0.752;2023-03-09T10:43:29;98535.28;;;7.58;100.00
38812;BME280;24553;51.640;-0.752;2023-03-09T10:46:11;98533.19;;;7.67;100.00
38812;BME280;24553;51.640;-0.752;2023-03-09T10:48:37;98526.66;;;7.70;100.00
38812;BME280;24553;51.640;-0.752;2023-03-09T10:51:05;98518.06;;;7.74;100.00
38812;BME280;24553;51.640;-0.752;2023-03-09T10:53:39;98519.53;;;7.89;100.00
38812;BME280;24553;51.640;-0.752;2023-03-09T10:56:15;98513.81;;;7.92;100.00
38812;BME280;24553;51.640;-0.752;2023-03-09T10:58:42;98508.16;;;8.06;100.00
38812;BME280;24553;51.640;-0.752;2023-03-09T11:03:43;98514.53;;;7.99;100.00
38812;BME280;24553;51.640;-0.752;2023-03-09T11:11:46;98503.19;;;7.98;100.00
38812;BME280;24553;51.640;-0.752;2023-03-09T11:14:21;98499.44;;;8.06;100.00
38812;BME280;24553;51.640;-0.752;2023-03-09T11:16:50;98495.69;;;8.14;100.00
38812;BME280;24553;51.640;-0.752;2023-03-09T11:19:17;98488.16;;;8.29;100.00
38812;BME280;24553;51.640;-0.752;2023-03-09T11:21:53;98495.38;;;8.34;100.00
38812;BME280;24553;51.640;-0.752;2023-03-09T11:24:27;98489.31;;;8.33;100.00
38812;BME280;24553;51.640;-0.752;2023-03-09T11:26:59;98483.56;;;8.36;100.00
38812;BME280;24553;51.640;-0.752;2023-03-09T11:32:27;98482.97;;;8.52;100.00
38812;BME280;24553;51.640;-0.752;2023-03-09T11:34:52;98484.81;;;8.64;100.00
38812;BME280;24553;51.640;-0.752;2023-03-09T11:40:03;98484.53;;;8.84;100.00
38812;BME280;24553;51.640;-0.752;2023-03-09T11:42:51;98493.13;;;8.79;100.00
38812;BME280;24553;51.640;-0.752;2023-03-09T11:45:29;98482.13;;;8.94;100.00
38812;BME280;24553;51.640;-0.752;2023-03-09T11:50:32;98472.25;;;9.01;100.00
38812;BME280;24553;51.640;-0.752;2023-03-09T11:53:03;98481.88;;;8.95;100.00
38812;BME280;24553;51.640;-0.752;2023-03-09T11:55:35;98474.28;;;9.11;100.00
38812;BME280;24553;51.640;-0.752;2023-03-09T11:58:04;98476.63;;;9.19;100.00
38812;BME280;24553;51.640;-0.752;2023-03-09T12:00:32;98465.69;;;9.27;100.00
38812;BME280;24553;51.640;-0.752;2023-03-09T12:03:15;98460.25;;;9.34;100.00
38812;BME280;24553;51.640;-0.752;2023-03-09T12:05:45;98457.84;;;9.21;100.00
38812;BME280;24553;51.640;-0.752;2023-03-09T12:08:16;98459.78;;;9.37;100.00
38812;BME280;24553;51.640;-0.752;2023-03-09T12:10:49;98445.28;;;9.39;100.00
38812;BME280;24553;51.640;-0.752;2023-03-09T12:13:19;98439.63;;;9.59;100.00
38812;BME280;24553;51.640;-0.752;2023-03-09T12:15:55;98432.56;;;9.77;100.00
38812;BME280;24553;51.640;-0.752;2023-03-09T12:18:35;98435.63;;;9.86;100.00
38812;BME280;24553;51.640;-0.752;2023-03-09T12:21:07;98432.69;;;9.99;100.00
38812;BME280;24553;51.640;-0.752;2023-03-09T12:26:22;98421.84;;;10.12;100.00
38812;BME280;24553;51.640;-0.752;2023-03-09T12:29:02;98420.97;;;10.23;100.00
38812;BME280;24553;51.640;-0.752;2023-03-09T12:31:32;98418.22;;;10.18;100.00
38812;BME280;24553;51.640;-0.752;2023-03-09T12:36:26;98407.09;;;10.50;100.00
38812;BME280;24553;51.640;-0.752;2023-03-09T12:45:00;98390.22;;;10.73;100.00
38812;BME280;24553;51.640;-0.752;2023-03-09T12:48:02;98384.44;;;10.76;100.00
38812;BME280;24553;51.640;-0.752;2023-03-09T12:50:49;98382.06;;;10.75;100.00
38812;BME280;24553;51.640;-0.752;2023-03-09T12:53:24;98372.41;;;10.68;100.00
38812;BME280;24553;51.640;-0.752;2023-03-09T12:55:59;98375.09;;;10.52;100.00
38812;BME280;24553;51.640;-0.752;2023-03-09T13:01:10;98371.13;;;10.71;100.00
38812;BME280;24553;51.640;-0.752;2023-03-09T13:03:50;98353.84;;;10.68;100.00
38812;BME280;24553;51.640;-0.752;2023-03-09T13:09:21;98352.34;;;10.73;100.00
38812;BME280;24553;51.640;-0.752;2023-03-09T13:12:00;98344.16;;;10.57;100.00
38812;BME280;24553;51.640;-0.752;2023-03-09T13:17:01;98335.56;;;10.50;100.00
38812;BME280;24553;51.640;-0.752;2023-03-09T13:19:37;98333.91;;;10.44;100.00
38812;BME280;24553;51.640;-0.752;2023-03-09T13:22:15;98332.31;;;10.43;100.00
38812;BME280;24553;51.640;-0.752;2023-03-09T13:24:42;98323.78;;;10.41;100.00
38812;BME280;24553;51.640;-0.752;2023-03-09T13:29:50;98326.03;;;10.49;100.00
38812;BME280;24553;51.640;-0.752;2023-03-09T13:32:38;98317.25;;;10.65;100.00
38812;BME280;24553;51.640;-0.752;2023-03-09T13:35:16;98322.38;;;10.72;100.00
38812;BME280;24553;51.640;-0.752;2023-03-09T13:37:43;98325.41;;;10.81;100.00
38812;BME280;24553;51.640;-0.752;2023-03-09T13:42:43;98314.56;;;10.82;100.00
38812;BME280;24553;51.640;-0.752;2023-03-09T13:45:42;98320.50;;;10.89;100.00
38812;BME280;24553;51.640;-0.752;2023-03-09T13:48:18;98314.69;;;10.93;100.00
38812;BME280;24553;51.640;-0.752;2023-03-09T13:50:44;98311.91;;;11.04;100.00
38812;BME280;24553;51.640;-0.752;2023-03-09T13:56:00;98294.19;;;11.54;100.00
38812;BME280;24553;51.640;-0.752;2023-03-09T13:58:27;98290.69;;;11.53;100.00
38812;BME280;24553;51.640;-0.752;2023-03-09T14:00:55;98290.81;;;11.37;100.00
38812;BME280;24553;51.640;-0.752;2023-03-09T14:03:23;98288.28;;;11.25;100.00
38812;BME280;24553;51.640;-0.752;2023-03-09T14:06:06;98288.22;;;11.20;100.00